Yonkers, NY (10710)

6:02 PM EDT on March 28, 2017 (GMT -0400)
Homefield | | Change Station

Elev 150 ft 40.97 °N, 73.87 °W | Updated 1 second ago

Overcast
Overcast
42.3 °F
Feels Like 42 °F
N
0.0
Wind Variable Wind from NNE
Gusts 0.0 mph

Today
High -- | Low -- °F
--% Chance of Precip.
Yesterday
High -- | Low -- °F
Precip. -- in
Pressure 29.89 in
Visibility 1.5 miles
Clouds Overcast 200 ft
Windchill 42 °F
Dew Point 42 °F
Humidity 97%
Rainfall 0.24 in
Snow Depth Not available.
6:45 AM 7:16 PM
New Moon, 1% visible
SPECI KHPN 282158Z 07007KT 1 1/2SM -RA FG OVC002 05/04 A2989
Pressure 29.89 in
Visibility 1.5 miles
Clouds Overcast 200 ft
Windchill 42 °F
Dew Point 42 °F
Humidity 97%
Rainfall 0.24 in
Snow Depth Not available.
6:45 AM 7:16 PM
New Moon, 1% visible
SPECI KHPN 282158Z 07007KT 1 1/2SM -RA FG OVC002 05/04 A2989

Get Severe Weather Alerts

Thanks for signing up!

Be on the lookout for a verification email in your inbox.

You'll start receiving the daily forecast at 8 AM.

×

10-Day Weather Forecast

Almanac

Astronomy

Mar. 28, 2017 Rise Set
Actual Time
Civil Twilight
Nautical Twilight
Astronomical Twilight
Moon
Length of Visible Light
Length of Day
Tomorrow will be .
, % of the Moon is Illuminated

Today's Extremes

State Highs State Lows

Community

WunderPhotos

Upload Photos

1,962,540 photos uploaded!

WunderBlog® & News

Nearby

Air Quality

  Air Quality AQ Index Pollutant
Not available.

Snow Depth

Station Depth Elevation

Earthquake Activity

City Distance Mag. Time & Date
Minimum magnitude displayed is 2.5.

Earthquake Activity

City Distance Mag. Time & Date
Minimum magnitude displayed is 2.5.

Coastal Water Temperatures

Place Temperature

Stations

Nearby Weather Stations

Station Location Temp. Windchill Dew Point Humidity Wind Precip. Elev Updated Type
                   

Watches & Warnings

There are currently no watches in effect.